Time;durP1;ratioP1;P1;durP2;ratioP2;P2;SDS_P1;SDS_P2;PMS_P1;PMS_P2;Temp;Humidity;BMP_temperature;BMP_pressure;BME280_temperature;BME280_humidity;BME280_pressure;Samples;Min_cycle;Max_cycle;Signal;HPM_P1;HPM_P2
2022/07/01 00:00:17;;;;;;;2.87;1.00;;;;;;;;;;4956916;28;20271;-74
2022/07/01 00:02:43;;;;;;;1.77;1.10;;;;;;;;;;4970847;28;20183;-75
2022/07/01 00:05:09;;;;;;;3.87;1.03;;;;;;;;;;4968513;28;20185;-74
2022/07/01 00:07:45;;;;;;;3.93;1.23;;;;;;;;;;4967029;28;20220;-73
2022/07/01 00:10:12;;;;;;;1.00;0.90;;;;;;;;;;4969071;28;20186;-74
2022/07/01 00:12:38;;;;;;;2.00;0.90;;;;;;;;;;4971307;28;20196;-74
2022/07/01 00:15:04;;;;;;;1.27;0.97;;;;;;;;;;4970528;28;20663;-75
2022/07/01 00:17:31;;;;;;;1.30;0.90;;;;;;;;;;4967935;28;20330;-74
2022/07/01 00:19:57;;;;;;;1.33;1.07;;;;;;;;;;4964274;28;20195;-74
2022/07/01 00:22:23;;;;;;;1.73;1.00;;;;;;;;;;4969795;28;20205;-74
2022/07/01 00:24:49;;;;;;;1.87;1.00;;;;;;;;;;4968246;28;20200;-74
2022/07/01 00:27:16;;;;;;;1.63;0.90;;;;;;;;;;4964818;28;20767;-75
2022/07/01 00:29:42;;;;;;;2.37;1.03;;;;;;;;;;4965678;28;20208;-73
2022/07/01 00:32:09;;;;;;;1.23;0.93;;;;;;;;;;4967018;28;20274;-74
2022/07/01 00:34:35;;;;;;;2.17;0.90;;;;;;;;;;4966642;28;20184;-74
2022/07/01 00:37:01;;;;;;;1.17;0.90;;;;;;;;;;4966947;28;20208;-75
2022/07/01 00:39:30;;;;;;;1.57;0.93;;;;;;;;;;4954570;28;20188;-74
2022/07/01 00:41:59;;;;;;;1.80;1.20;;;;;;;;;;4969439;28;20208;-73
2022/07/01 00:44:26;;;;;;;1.93;0.90;;;;;;;;;;4976179;28;20176;-74
2022/07/01 00:46:52;;;;;;;1.77;0.90;;;;;;;;;;4955415;28;20184;-73
2022/07/01 00:49:18;;;;;;;1.13;1.00;;;;;;;;;;4971052;28;20287;-74
2022/07/01 00:51:45;;;;;;;1.13;1.00;;;;;;;;;;4968126;28;20231;-73
2022/07/01 00:54:11;;;;;;;1.80;1.10;;;;;;;;;;4968104;28;20192;-74
2022/07/01 00:56:38;;;;;;;1.73;1.10;;;;;;;;;;4968824;28;20240;-74
2022/07/01 00:59:04;;;;;;;1.17;1.00;;;;;;;;;;4972669;28;20188;-74
2022/07/01 01:01:30;;;;;;;1.00;0.90;;;;;;;;;;4952979;28;20216;-74
2022/07/01 01:03:57;;;;;;;1.30;1.10;;;;;;;;;;4953655;28;20575;-74
2022/07/01 01:06:23;;;;;;;1.20;1.10;;;;;;;;;;4968037;28;20192;-73
2022/07/01 01:08:50;;;;;;;4.13;1.33;;;;;;;;;;4967742;28;20218;-75
2022/07/01 01:11:17;;;;;;;1.53;1.00;;;;;;;;;;4954685;28;20210;-73
2022/07/01 01:13:43;;;;;;;1.10;1.00;;;;;;;;;;4969877;28;20189;-74
2022/07/01 01:16:16;;;;;;;1.20;1.10;;;;;;;;;;4968403;28;20223;-73
2022/07/01 01:18:42;;;;;;;2.20;1.30;;;;;;;;;;4972637;28;20203;-73
2022/07/01 01:21:08;;;;;;;2.03;1.10;;;;;;;;;;4972112;28;20200;-73
2022/07/01 01:23:34;;;;;;;1.57;1.10;;;;;;;;;;4972042;28;20180;-73
2022/07/01 01:26:02;;;;;;;1.30;1.20;;;;;;;;;;4968575;28;20305;-75
2022/07/01 01:28:28;;;;;;;1.80;1.20;;;;;;;;;;4971608;28;20211;-74
2022/07/01 01:30:55;;;;;;;1.57;1.10;;;;;;;;;;4972224;28;20208;-74
2022/07/01 01:33:21;;;;;;;2.30;1.40;;;;;;;;;;4971167;28;20189;-75
2022/07/01 01:35:47;;;;;;;1.73;1.13;;;;;;;;;;4972863;28;20209;-74
2022/07/01 01:38:13;;;;;;;2.00;1.23;;;;;;;;;;4974689;28;20200;-75
2022/07/01 01:40:39;;;;;;;2.13;1.40;;;;;;;;;;4972353;28;20196;-74
2022/07/01 01:43:05;;;;;;;1.20;1.10;;;;;;;;;;4972726;28;20180;-74
2022/07/01 01:45:32;;;;;;;3.00;1.30;;;;;;;;;;4972016;28;20192;-74
2022/07/01 01:47:58;;;;;;;1.73;1.10;;;;;;;;;;4977370;28;20283;-74
2022/07/01 01:50:24;;;;;;;1.73;1.13;;;;;;;;;;4960486;28;20253;-74
2022/07/01 01:52:50;;;;;;;1.83;1.10;;;;;;;;;;4971189;28;20657;-74
2022/07/01 01:55:16;;;;;;;1.23;1.10;;;;;;;;;;4974967;28;20235;-74
2022/07/01 01:57:43;;;;;;;1.83;1.30;;;;;;;;;;4974977;28;20208;-74
2022/07/01 02:00:09;;;;;;;2.00;1.33;;;;;;;;;;4968765;28;20263;-74
2022/07/01 02:02:38;;;;;;;1.60;1.30;;;;;;;;;;4972731;28;20235;-74
2022/07/01 02:05:06;;;;;;;1.10;1.00;;;;;;;;;;4969889;28;20208;-74
2022/07/01 02:07:32;;;;;;;1.20;1.10;;;;;;;;;;4972402;28;20188;-75
2022/07/01 02:09:58;;;;;;;1.47;1.13;;;;;;;;;;4971111;28;20583;-74
2022/07/01 02:12:24;;;;;;;2.43;1.40;;;;;;;;;;4972096;28;20694;-74
2022/07/01 02:14:50;;;;;;;1.30;1.20;;;;;;;;;;4971772;28;20272;-74
2022/07/01 02:17:17;;;;;;;1.40;1.27;;;;;;;;;;4971537;28;20216;-74
2022/07/01 02:19:43;;;;;;;1.73;1.30;;;;;;;;;;4970596;28;20189;-74
2022/07/01 02:22:09;;;;;;;4.97;1.30;;;;;;;;;;4969630;28;20986;-74
2022/07/01 02:24:35;;;;;;;1.33;1.10;;;;;;;;;;4959239;28;20318;-74
2022/07/01 02:27:01;;;;;;;1.90;1.10;;;;;;;;;;4965930;28;20184;-74
2022/07/01 02:29:27;;;;;;;2.07;1.23;;;;;;;;;;4970397;28;20283;-74
2022/07/01 02:31:54;;;;;;;0.90;0.90;;;;;;;;;;4968151;28;21151;-74
2022/07/01 02:34:20;;;;;;;1.40;1.30;;;;;;;;;;4971137;28;20759;-74
2022/07/01 02:36:46;;;;;;;2.37;1.20;;;;;;;;;;4973014;28;20299;-74
2022/07/01 02:39:12;;;;;;;1.60;1.23;;;;;;;;;;4967128;28;20207;-74
2022/07/01 02:44:24;;;;;;;3.03;1.20;;;;;;;;;;4968373;28;20687;-74
2022/07/01 02:46:50;;;;;;;2.23;1.30;;;;;;;;;;4937627;28;20184;-74
2022/07/01 02:49:16;;;;;;;1.87;1.30;;;;;;;;;;4970976;28;20772;-74
2022/07/01 02:51:42;;;;;;;1.77;1.40;;;;;;;;;;4971606;28;20210;-72
2022/07/01 02:54:09;;;;;;;2.13;1.50;;;;;;;;;;4970296;28;20275;-73
2022/07/01 02:56:35;;;;;;;1.47;1.37;;;;;;;;;;4972545;28;20209;-73
2022/07/01 02:59:01;;;;;;;2.10;1.27;;;;;;;;;;4970807;28;20184;-72
2022/07/01 03:01:27;;;;;;;1.43;1.33;;;;;;;;;;4971681;28;20209;-72
2022/07/01 03:03:53;;;;;;;2.53;1.33;;;;;;;;;;4970890;28;20692;-72
2022/07/01 03:06:19;;;;;;;3.87;1.37;;;;;;;;;;4970262;28;20187;-73
2022/07/01 03:08:45;;;;;;;1.77;1.40;;;;;;;;;;4965413;28;20188;-73
2022/07/01 03:11:11;;;;;;;3.10;1.60;;;;;;;;;;4970532;28;20215;-74
2022/07/01 03:13:38;;;;;;;1.40;1.20;;;;;;;;;;4969220;28;20248;-73
2022/07/01 03:16:04;;;;;;;1.43;1.20;;;;;;;;;;4972601;28;20212;-75
2022/07/01 03:18:30;;;;;;;2.53;1.30;;;;;;;;;;4969473;28;20191;-72
2022/07/01 03:20:56;;;;;;;1.37;1.27;;;;;;;;;;4971522;28;20597;-75
2022/07/01 03:23:23;;;;;;;1.33;1.23;;;;;;;;;;4968721;28;20198;-73
2022/07/01 03:25:49;;;;;;;13.70;2.43;;;;;;;;;;4957995;28;20188;-73
2022/07/01 03:28:17;;;;;;;1.87;1.53;;;;;;;;;;4967352;28;20193;-73
2022/07/01 03:30:43;;;;;;;3.23;1.50;;;;;;;;;;4972329;28;20267;-73
2022/07/01 03:33:09;;;;;;;8.73;1.80;;;;;;;;;;4968766;28;20275;-73
2022/07/01 03:35:36;;;;;;;7.73;2.00;;;;;;;;;;4969381;28;20209;-73
2022/07/01 03:38:03;;;;;;;2.30;1.60;;;;;;;;;;4962686;28;20216;-73
2022/07/01 03:40:29;;;;;;;3.07;1.50;;;;;;;;;;4969192;28;20247;-73
2022/07/01 03:42:55;;;;;;;1.40;1.30;;;;;;;;;;4970971;28;20535;-73
2022/07/01 03:45:21;;;;;;;1.87;1.30;;;;;;;;;;4971192;28;20284;-73
2022/07/01 03:47:48;;;;;;;1.77;1.47;;;;;;;;;;4968055;28;20189;-73
2022/07/01 03:50:15;;;;;;;2.70;1.47;;;;;;;;;;4971867;28;20190;-74
2022/07/01 03:52:42;;;;;;;3.47;1.47;;;;;;;;;;4970543;28;20242;-72
2022/07/01 03:55:11;;;;;;;2.43;1.40;;;;;;;;;;4964495;28;20614;-73
2022/07/01 03:57:38;;;;;;;4.20;1.33;;;;;;;;;;4971019;28;20287;-73
2022/07/01 04:00:05;;;;;;;1.67;1.33;;;;;;;;;;4956064;28;20293;-74
2022/07/01 04:02:31;;;;;;;2.67;1.37;;;;;;;;;;4969877;28;20231;-73
2022/07/01 04:04:57;;;;;;;1.30;1.20;;;;;;;;;;4972090;28;20188;-73
2022/07/01 04:07:23;;;;;;;8.53;1.40;;;;;;;;;;4966349;28;20188;-73
2022/07/01 04:09:50;;;;;;;2.40;1.43;;;;;;;;;;4968508;28;20279;-72
2022/07/01 04:12:16;;;;;;;2.70;1.30;;;;;;;;;;4966970;28;20679;-74
2022/07/01 04:14:42;;;;;;;1.87;1.40;;;;;;;;;;4953060;28;20570;-74
2022/07/01 04:17:08;;;;;;;2.00;1.60;;;;;;;;;;4971186;28;20227;-74
2022/07/01 04:19:35;;;;;;;2.70;1.67;;;;;;;;;;4968743;28;20181;-74
2022/07/01 04:24:47;;;;;;;3.30;2.33;;;;;;;;;;4953580;28;20215;-73
2022/07/01 04:27:13;;;;;;;2.73;2.13;;;;;;;;;;4968683;28;20188;-73
2022/07/01 04:29:39;;;;;;;3.47;2.10;;;;;;;;;;4966485;28;20205;-73
2022/07/01 04:32:06;;;;;;;3.00;1.80;;;;;;;;;;4968553;28;20212;-75
2022/07/01 04:34:32;;;;;;;2.70;1.93;;;;;;;;;;4949639;28;20200;-73
2022/07/01 04:36:58;;;;;;;4.53;1.97;;;;;;;;;;4963282;28;20287;-73
2022/07/01 04:39:24;;;;;;;5.23;2.00;;;;;;;;;;4969274;28;20181;-75
2022/07/01 04:41:59;;;;;;;1.70;1.60;;;;;;;;;;4967988;28;20191;-73
2022/07/01 04:44:26;;;;;;;3.20;1.80;;;;;;;;;;4970694;28;20597;-73
2022/07/01 04:46:52;;;;;;;2.87;1.80;;;;;;;;;;4966522;28;20188;-73
2022/07/01 04:49:19;;;;;;;1.60;1.50;;;;;;;;;;4968444;28;20185;-73
2022/07/01 04:51:45;;;;;;;2.03;1.30;;;;;;;;;;4970920;28;20212;-73
2022/07/01 04:54:11;;;;;;;2.20;1.30;;;;;;;;;;4968150;28;20176;-73
2022/07/01 04:56:38;;;;;;;1.97;1.60;;;;;;;;;;4967656;28;20331;-73
2022/07/01 04:59:05;;;;;;;3.97;1.67;;;;;;;;;;4966282;28;20235;-73
2022/07/01 05:01:36;;;;;;;1.77;1.50;;;;;;;;;;4950490;28;20552;-74
2022/07/01 05:04:02;;;;;;;1.40;1.30;;;;;;;;;;4967840;28;20716;-74
2022/07/01 05:06:29;;;;;;;3.77;1.30;;;;;;;;;;4967747;28;20189;-74
2022/07/01 05:08:55;;;;;;;1.93;1.50;;;;;;;;;;4968035;28;20192;-72
2022/07/01 05:11:22;;;;;;;2.00;1.80;;;;;;;;;;4969594;28;20207;-72
2022/07/01 05:13:49;;;;;;;1.90;1.50;;;;;;;;;;4974896;28;20184;-72
2022/07/01 05:16:16;;;;;;;3.50;1.60;;;;;;;;;;4970312;28;20208;-73
2022/07/01 05:24:12;;;;;;;2.07;1.60;;;;;;;;;;4964630;28;20188;-73
2022/07/01 05:26:38;;;;;;;3.13;1.50;;;;;;;;;;4969544;28;20185;-73
2022/07/01 05:29:04;;;;;;;1.30;1.20;;;;;;;;;;4970834;28;20219;-73
2022/07/01 05:31:31;;;;;;;4.20;1.53;;;;;;;;;;4970489;28;20216;-75
2022/07/01 05:33:57;;;;;;;1.77;1.40;;;;;;;;;;4971703;28;20189;-73
2022/07/01 05:36:23;;;;;;;2.00;1.70;;;;;;;;;;4969657;28;20280;-71
2022/07/01 05:38:49;;;;;;;1.80;1.50;;;;;;;;;;4973213;28;20181;-73
2022/07/01 05:41:16;;;;;;;1.60;1.50;;;;;;;;;;4972400;28;20228;-72
2022/07/01 05:43:42;;;;;;;2.07;1.50;;;;;;;;;;4967848;28;20246;-72
2022/07/01 05:46:08;;;;;;;1.93;1.60;;;;;;;;;;4970579;28;20279;-72
2022/07/01 05:48:34;;;;;;;2.13;1.50;;;;;;;;;;4970150;28;20184;-72
2022/07/01 05:51:01;;;;;;;1.70;1.60;;;;;;;;;;4970329;28;20609;-72
2022/07/01 05:53:27;;;;;;;1.90;1.30;;;;;;;;;;4971650;28;20209;-72
2022/07/01 05:55:53;;;;;;;1.57;1.40;;;;;;;;;;4970464;28;20640;-72
2022/07/01 05:58:19;;;;;;;1.97;1.60;;;;;;;;;;4969681;28;20731;-72
2022/07/01 06:00:45;;;;;;;1.70;1.60;;;;;;;;;;4967685;28;20315;-71
2022/07/01 06:03:12;;;;;;;2.23;1.53;;;;;;;;;;4952149;28;20185;-72
2022/07/01 06:05:39;;;;;;;3.27;1.77;;;;;;;;;;4971037;28;20212;-72
2022/07/01 06:08:06;;;;;;;2.00;1.40;;;;;;;;;;4976532;28;20652;-72
2022/07/01 06:10:33;;;;;;;2.23;1.60;;;;;;;;;;4975498;28;20279;-72
2022/07/01 06:12:59;;;;;;;2.63;1.63;;;;;;;;;;4973508;28;20275;-72
2022/07/01 06:15:25;;;;;;;1.87;1.77;;;;;;;;;;4972691;28;20201;-72
2022/07/01 06:17:52;;;;;;;3.13;1.60;;;;;;;;;;4972530;28;20235;-72
2022/07/01 06:20:18;;;;;;;2.03;1.83;;;;;;;;;;4973714;28;20295;-72
2022/07/01 06:22:44;;;;;;;1.90;1.50;;;;;;;;;;4973564;28;20676;-72
2022/07/01 06:25:11;;;;;;;2.57;1.70;;;;;;;;;;4973759;28;20263;-72
2022/07/01 06:27:40;;;;;;;1.90;1.67;;;;;;;;;;4972800;28;20192;-72
2022/07/01 06:30:07;;;;;;;2.53;1.87;;;;;;;;;;4974341;28;20193;-72
2022/07/01 06:32:33;;;;;;;2.70;2.00;;;;;;;;;;4971922;28;20232;-72
2022/07/01 06:34:59;;;;;;;2.10;2.00;;;;;;;;;;4970039;28;20188;-72
2022/07/01 06:37:25;;;;;;;3.30;2.03;;;;;;;;;;4972212;28;20200;-72
2022/07/01 06:39:51;;;;;;;2.40;2.20;;;;;;;;;;4971013;28;20205;-72
2022/07/01 06:42:18;;;;;;;3.50;2.20;;;;;;;;;;4972917;28;20774;-72
2022/07/01 06:44:44;;;;;;;2.37;2.17;;;;;;;;;;4972789;28;20212;-72
2022/07/01 06:47:10;;;;;;;3.50;2.23;;;;;;;;;;4973302;28;20691;-72
2022/07/01 06:49:37;;;;;;;2.30;2.10;;;;;;;;;;4972223;28;20180;-72
2022/07/01 06:52:04;;;;;;;2.57;2.37;;;;;;;;;;4971959;28;20216;-72
2022/07/01 06:54:30;;;;;;;3.17;2.73;;;;;;;;;;4969403;28;20188;-72
2022/07/01 06:56:56;;;;;;;3.30;2.77;;;;;;;;;;4969841;28;20208;-72
2022/07/01 06:59:22;;;;;;;3.97;2.80;;;;;;;;;;4970512;28;20173;-72
2022/07/01 07:01:49;;;;;;;3.93;2.60;;;;;;;;;;4971257;28;20298;-72
2022/07/01 07:04:16;;;;;;;2.73;2.50;;;;;;;;;;4970907;28;20177;-72
2022/07/01 07:06:42;;;;;;;3.87;2.60;;;;;;;;;;4969622;28;20201;-71
2022/07/01 07:09:08;;;;;;;3.93;2.33;;;;;;;;;;4971600;28;20189;-72
2022/07/01 07:11:35;;;;;;;3.03;2.20;;;;;;;;;;4970627;28;20312;-79
2022/07/01 07:14:01;;;;;;;2.40;2.00;;;;;;;;;;4969258;28;20210;-72
2022/07/01 07:16:27;;;;;;;2.40;2.00;;;;;;;;;;4970541;28;20232;-71
2022/07/01 07:18:53;;;;;;;5.43;2.30;;;;;;;;;;4955004;28;20217;-71
2022/07/01 07:21:20;;;;;;;3.03;2.23;;;;;;;;;;4968406;28;20688;-71
2022/07/01 07:23:46;;;;;;;5.03;2.30;;;;;;;;;;4970453;28;20672;-71
2022/07/01 07:26:12;;;;;;;2.70;2.23;;;;;;;;;;4967615;28;20180;-71
2022/07/01 07:28:39;;;;;;;2.87;2.30;;;;;;;;;;4967886;28;20208;-71
2022/07/01 07:31:05;;;;;;;5.07;2.50;;;;;;;;;;4968180;28;20200;-71
2022/07/01 07:33:31;;;;;;;2.70;2.40;;;;;;;;;;4967914;28;20195;-71
2022/07/01 07:35:57;;;;;;;3.87;3.00;;;;;;;;;;4966630;28;20185;-70
2022/07/01 07:38:23;;;;;;;3.97;2.90;;;;;;;;;;4967684;28;20688;-70
2022/07/01 07:40:50;;;;;;;3.53;3.10;;;;;;;;;;4969733;28;20332;-70
2022/07/01 07:43:16;;;;;;;5.20;3.00;;;;;;;;;;4965319;28;20559;-71
2022/07/01 07:45:42;;;;;;;3.60;2.83;;;;;;;;;;4967165;28;20224;-70
2022/07/01 07:48:09;;;;;;;3.60;3.30;;;;;;;;;;4967308;28;20188;-71
2022/07/01 07:50:35;;;;;;;5.17;2.90;;;;;;;;;;4953405;28;20644;-71
2022/07/01 07:53:02;;;;;;;6.40;3.43;;;;;;;;;;4967812;28;20203;-71
2022/07/01 07:55:28;;;;;;;3.60;3.23;;;;;;;;;;4968966;28;20189;-71
2022/07/01 07:57:55;;;;;;;3.73;3.07;;;;;;;;;;4968033;28;20742;-75
2022/07/01 08:00:21;;;;;;;4.70;3.20;;;;;;;;;;4954000;28;20649;-70
2022/07/01 08:02:47;;;;;;;4.67;3.17;;;;;;;;;;4967828;28;20185;-70
2022/07/01 08:05:14;;;;;;;3.20;2.90;;;;;;;;;;4971785;28;20196;-72
2022/07/01 08:07:41;;;;;;;3.00;2.70;;;;;;;;;;4970269;28;20284;-71
2022/07/01 08:10:08;;;;;;;3.77;3.23;;;;;;;;;;4971675;28;20675;-70
2022/07/01 08:12:35;;;;;;;4.07;3.20;;;;;;;;;;4954762;28;20267;-71
2022/07/01 08:15:01;;;;;;;4.67;3.60;;;;;;;;;;4970842;28;20184;-71
2022/07/01 08:17:28;;;;;;;5.37;3.20;;;;;;;;;;4967532;28;20688;-70
2022/07/01 08:19:54;;;;;;;4.07;3.13;;;;;;;;;;4970319;28;20219;-70
2022/07/01 08:22:20;;;;;;;3.23;2.93;;;;;;;;;;4967183;28;20353;-70
2022/07/01 08:24:46;;;;;;;3.40;2.97;;;;;;;;;;4958671;28;20251;-70
2022/07/01 08:27:12;;;;;;;3.40;3.10;;;;;;;;;;4968912;28;20607;-70
2022/07/01 08:29:39;;;;;;;3.33;2.57;;;;;;;;;;4967921;28;20208;-70
2022/07/01 08:32:06;;;;;;;3.53;2.60;;;;;;;;;;4966413;28;20239;-71
2022/07/01 08:34:32;;;;;;;3.10;2.80;;;;;;;;;;4958428;28;20192;-70
2022/07/01 08:36:59;;;;;;;2.73;2.53;;;;;;;;;;4959135;28;20299;-70
2022/07/01 08:39:26;;;;;;;2.77;2.53;;;;;;;;;;4957716;28;20180;-70
2022/07/01 08:41:53;;;;;;;3.87;3.03;;;;;;;;;;4968841;28;20236;-70
2022/07/01 08:44:20;;;;;;;4.07;2.87;;;;;;;;;;4967200;28;21440;-70
2022/07/01 08:46:46;;;;;;;3.90;2.80;;;;;;;;;;4967185;28;20743;-71
2022/07/01 08:49:13;;;;;;;3.70;3.10;;;;;;;;;;4968764;28;20228;-71
2022/07/01 08:51:40;;;;;;;3.67;2.27;;;;;;;;;;4968281;28;20228;-70
2022/07/01 08:54:07;;;;;;;3.40;2.50;;;;;;;;;;4966999;28;20204;-71
2022/07/01 08:56:42;;;;;;;2.80;2.50;;;;;;;;;;4965550;28;20275;-70
2022/07/01 08:59:12;;;;;;;3.67;2.63;;;;;;;;;;4965619;28;20181;-70
2022/07/01 09:01:39;;;;;;;3.47;2.60;;;;;;;;;;4966473;28;20227;-70
2022/07/01 09:04:18;;;;;;;2.60;2.40;;;;;;;;;;4968268;28;20266;-69
2022/07/01 09:06:45;;;;;;;3.57;2.50;;;;;;;;;;4969729;28;20184;-70
2022/07/01 09:09:12;;;;;;;2.73;2.40;;;;;;;;;;4968292;28;20206;-70
2022/07/01 09:11:43;;;;;;;3.30;2.30;;;;;;;;;;4969218;28;20220;-70
2022/07/01 09:14:11;;;;;;;3.17;2.70;;;;;;;;;;4965033;28;20224;-70
2022/07/01 09:16:41;;;;;;;4.67;2.70;;;;;;;;;;4967330;28;20205;-72
2022/07/01 09:19:08;;;;;;;3.00;2.50;;;;;;;;;;4967589;28;20232;-75
2022/07/01 09:21:34;;;;;;;3.00;2.50;;;;;;;;;;4972816;28;20428;-73
2022/07/01 09:24:04;;;;;;;4.97;2.40;;;;;;;;;;4962045;28;21201;-69
2022/07/01 09:26:31;;;;;;;6.03;2.63;;;;;;;;;;4965442;28;21086;-71
2022/07/01 09:28:59;;;;;;;2.80;2.60;;;;;;;;;;4964794;28;20203;-69
2022/07/01 09:31:34;;;;;;;4.47;2.63;;;;;;;;;;4961774;28;20212;-70
2022/07/01 09:34:04;;;;;;;2.30;2.10;;;;;;;;;;4962420;28;20266;-70
2022/07/01 09:36:31;;;;;;;12.40;7.73;;;;;;;;;;4962011;28;20231;-70
2022/07/01 09:38:57;;;;;;;3.77;3.30;;;;;;;;;;4964921;28;20204;-69
2022/07/01 09:41:25;;;;;;;4.90;3.70;;;;;;;;;;4966342;28;20284;-70
2022/07/01 09:43:51;;;;;;;3.80;3.40;;;;;;;;;;4970096;28;20200;-69
2022/07/01 09:46:18;;;;;;;5.00;3.70;;;;;;;;;;4967194;28;20196;-71
2022/07/01 09:48:45;;;;;;;4.47;3.27;;;;;;;;;;4968223;28;20331;-71
2022/07/01 09:51:13;;;;;;;4.13;3.60;;;;;;;;;;4970211;28;20204;-71
2022/07/01 09:53:40;;;;;;;5.07;4.23;;;;;;;;;;4953171;28;20216;-71
2022/07/01 09:56:06;;;;;;;7.77;4.70;;;;;;;;;;4971659;28;20723;-71
2022/07/01 09:58:32;;;;;;;4.10;3.70;;;;;;;;;;4968615;28;20172;-73
2022/07/01 10:00:59;;;;;;;4.60;3.63;;;;;;;;;;4964829;28;20215;-72
2022/07/01 10:03:26;;;;;;;5.67;3.53;;;;;;;;;;4966659;28;20192;-71
2022/07/01 10:05:58;;;;;;;3.60;3.03;;;;;;;;;;4967683;28;20200;-71
2022/07/01 10:08:33;;;;;;;4.50;2.80;;;;;;;;;;4965887;28;20223;-71
2022/07/01 10:11:05;;;;;;;4.63;3.20;;;;;;;;;;4972256;28;20220;-72
2022/07/01 10:13:33;;;;;;;3.40;3.03;;;;;;;;;;4977040;28;20734;-71
2022/07/01 10:16:02;;;;;;;3.73;2.90;;;;;;;;;;4969151;28;20223;-71
2022/07/01 10:18:28;;;;;;;3.73;2.50;;;;;;;;;;4971642;28;20192;-71
2022/07/01 10:20:56;;;;;;;3.63;2.63;;;;;;;;;;4971166;28;20235;-71
2022/07/01 10:23:25;;;;;;;2.90;2.40;;;;;;;;;;4971101;28;20231;-72
2022/07/01 10:25:52;;;;;;;4.27;2.30;;;;;;;;;;4973187;28;20177;-71
2022/07/01 10:28:28;;;;;;;3.37;1.90;;;;;;;;;;4971197;28;20743;-69
2022/07/01 10:31:15;;;;;;;2.57;1.97;;;;;;;;;;4971795;28;20223;-68
2022/07/01 10:33:41;;;;;;;2.83;2.03;;;;;;;;;;4971419;28;20220;-69
2022/07/01 10:36:08;;;;;;;3.93;2.00;;;;;;;;;;4973016;28;20180;-69
2022/07/01 10:38:34;;;;;;;4.30;1.87;;;;;;;;;;4970842;28;20181;-70
2022/07/01 10:41:09;;;;;;;2.60;1.77;;;;;;;;;;4971751;28;20318;-70
2022/07/01 10:43:36;;;;;;;3.27;1.60;;;;;;;;;;4974047;28;20188;-69
2022/07/01 10:46:04;;;;;;;4.47;1.90;;;;;;;;;;4972846;28;20858;-69
2022/07/01 10:48:33;;;;;;;3.27;1.70;;;;;;;;;;4969973;28;20723;-69
2022/07/01 10:51:00;;;;;;;1.77;1.63;;;;;;;;;;4969968;28;20232;-69
2022/07/01 10:53:30;;;;;;;2.27;1.20;;;;;;;;;;4972032;28;20279;-69
2022/07/01 10:55:58;;;;;;;3.33;1.37;;;;;;;;;;4971966;28;20180;-69
2022/07/01 10:58:37;;;;;;;1.77;1.23;;;;;;;;;;4972376;28;20542;-69
2022/07/01 11:01:04;;;;;;;1.90;1.10;;;;;;;;;;4972882;28;20321;-69
2022/07/01 11:03:34;;;;;;;1.47;1.10;;;;;;;;;;4970607;28;20184;-70
2022/07/01 11:06:02;;;;;;;2.30;1.27;;;;;;;;;;4971832;28;20191;-69
2022/07/01 11:08:28;;;;;;;2.03;1.30;;;;;;;;;;4972389;28;20665;-69
2022/07/01 11:11:01;;;;;;;2.00;1.33;;;;;;;;;;4972952;28;20197;-69
2022/07/01 11:13:27;;;;;;;1.80;1.20;;;;;;;;;;4970994;28;20176;-69
2022/07/01 11:15:54;;;;;;;1.40;1.20;;;;;;;;;;4969718;28;20185;-69
2022/07/01 11:18:20;;;;;;;1.40;1.20;;;;;;;;;;4969326;28;20208;-70
2022/07/01 11:20:46;;;;;;;2.90;1.33;;;;;;;;;;4970912;28;20208;-70
2022/07/01 11:23:13;;;;;;;2.87;1.40;;;;;;;;;;4971932;28;20205;-73
2022/07/01 11:25:39;;;;;;;2.73;1.30;;;;;;;;;;4971752;28;20189;-70
2022/07/01 11:28:06;;;;;;;1.67;1.10;;;;;;;;;;4968673;28;20235;-70
2022/07/01 11:30:32;;;;;;;5.57;1.47;;;;;;;;;;4968314;28;20215;-69
2022/07/01 11:32:59;;;;;;;2.33;1.10;;;;;;;;;;4971661;28;20216;-69
2022/07/01 11:41:06;;;;;;;4.90;1.30;;;;;;;;;;4968514;28;20289;-70
2022/07/01 11:43:33;;;;;;;2.67;1.47;;;;;;;;;;4969639;28;20271;-70
2022/07/01 11:46:01;;;;;;;1.63;1.20;;;;;;;;;;4966114;28;20188;-70
2022/07/01 11:48:38;;;;;;;4.87;1.40;;;;;;;;;;4966561;28;20191;-70
2022/07/01 11:51:11;;;;;;;2.83;1.20;;;;;;;;;;4966771;28;20310;-70
2022/07/01 11:53:38;;;;;;;1.80;1.20;;;;;;;;;;4967634;28;20200;-70
2022/07/01 11:56:04;;;;;;;1.47;1.10;;;;;;;;;;4967998;28;20191;-70
2022/07/01 11:58:41;;;;;;;2.63;1.20;;;;;;;;;;4963090;28;20727;-70
2022/07/01 12:01:08;;;;;;;2.43;1.17;;;;;;;;;;4970512;28;20207;-70
2022/07/01 12:03:35;;;;;;;0.97;0.90;;;;;;;;;;4965247;28;20203;-70
2022/07/01 12:06:02;;;;;;;3.33;1.50;;;;;;;;;;4955375;28;20243;-70
2022/07/01 12:08:28;;;;;;;2.40;1.10;;;;;;;;;;4954104;28;20202;-70
2022/07/01 12:10:57;;;;;;;3.13;1.17;;;;;;;;;;4951064;28;20362;-69
2022/07/01 12:13:24;;;;;;;1.80;1.20;;;;;;;;;;4931602;28;20196;-69
2022/07/01 12:15:51;;;;;;;1.53;1.10;;;;;;;;;;4952627;28;20192;-69
2022/07/01 12:18:17;;;;;;;1.67;1.20;;;;;;;;;;4964556;28;20275;-69
2022/07/01 12:20:48;;;;;;;1.60;1.10;;;;;;;;;;4962911;28;20660;-69
2022/07/01 12:23:15;;;;;;;1.83;1.20;;;;;;;;;;4962942;28;20300;-71
2022/07/01 12:25:46;;;;;;;2.30;1.40;;;;;;;;;;4964583;28;20196;-69
2022/07/01 12:28:29;;;;;;;1.97;1.20;;;;;;;;;;4965086;28;20193;-70
2022/07/01 12:31:06;;;;;;;1.57;1.20;;;;;;;;;;4967172;28;20968;-69
2022/07/01 12:33:33;;;;;;;1.83;1.30;;;;;;;;;;4963166;28;20195;-70
2022/07/01 12:36:01;;;;;;;1.50;1.20;;;;;;;;;;4962168;28;20212;-70
2022/07/01 12:38:27;;;;;;;2.27;1.27;;;;;;;;;;4964675;28;20208;-71
2022/07/01 12:40:53;;;;;;;1.53;1.20;;;;;;;;;;4965267;28;20209;-71
2022/07/01 12:43:24;;;;;;;2.67;1.50;;;;;;;;;;4966201;28;20188;-72
2022/07/01 12:45:50;;;;;;;1.87;1.53;;;;;;;;;;4967560;28;20184;-74
2022/07/01 12:48:16;;;;;;;2.73;1.50;;;;;;;;;;4966326;28;20196;-73
2022/07/01 12:50:45;;;;;;;3.00;1.40;;;;;;;;;;4965465;28;20250;-73
2022/07/01 12:53:17;;;;;;;2.00;1.60;;;;;;;;;;4969188;28;20223;-73
2022/07/01 12:55:45;;;;;;;3.50;1.80;;;;;;;;;;4968253;28;20220;-73
2022/07/01 12:58:13;;;;;;;2.13;1.70;;;;;;;;;;4965288;28;20316;-73
2022/07/01 13:00:40;;;;;;;2.93;1.50;;;;;;;;;;4970700;28;21872;-73
2022/07/01 13:03:06;;;;;;;2.43;1.60;;;;;;;;;;4958091;28;20271;-73
2022/07/01 13:05:34;;;;;;;3.07;1.50;;;;;;;;;;4968001;28;20194;-73
2022/07/01 13:08:00;;;;;;;2.67;1.50;;;;;;;;;;4966694;28;20188;-73
2022/07/01 13:10:27;;;;;;;2.03;1.60;;;;;;;;;;4960313;28;20307;-74
2022/07/01 13:12:53;;;;;;;1.97;1.60;;;;;;;;;;4962895;28;20620;-73
2022/07/01 13:15:19;;;;;;;1.53;1.40;;;;;;;;;;4970780;28;20621;-73
2022/07/01 13:17:46;;;;;;;2.50;1.50;;;;;;;;;;4967258;28;20212;-72
2022/07/01 13:20:13;;;;;;;2.13;1.73;;;;;;;;;;4970695;28;20181;-73
2022/07/01 13:22:39;;;;;;;1.87;1.40;;;;;;;;;;4970785;28;20576;-76
2022/07/01 13:25:05;;;;;;;2.33;1.60;;;;;;;;;;4969273;28;20189;-73
2022/07/01 13:27:32;;;;;;;1.60;1.50;;;;;;;;;;4968872;28;20266;-77
2022/07/01 13:29:58;;;;;;;2.07;1.60;;;;;;;;;;4935395;28;1068397;-72
2022/07/01 13:32:25;;;;;;;3.07;1.40;;;;;;;;;;4972198;28;20212;-73
2022/07/01 13:34:51;;;;;;;4.40;1.57;;;;;;;;;;4973390;28;20638;-73
2022/07/01 13:37:17;;;;;;;2.30;1.57;;;;;;;;;;4975175;28;20208;-73
2022/07/01 13:39:43;;;;;;;2.80;1.80;;;;;;;;;;4971986;28;20200;-73
2022/07/01 13:42:10;;;;;;;3.30;1.60;;;;;;;;;;4972182;28;20620;-73
2022/07/01 13:44:36;;;;;;;2.93;1.50;;;;;;;;;;4972792;28;20272;-73
2022/07/01 13:47:05;;;;;;;1.60;1.50;;;;;;;;;;4969366;28;20271;-73
2022/07/01 13:49:31;;;;;;;1.47;1.37;;;;;;;;;;4972159;28;20661;-75
2022/07/01 13:51:58;;;;;;;3.97;1.30;;;;;;;;;;4964908;28;20224;-73
2022/07/01 13:54:24;;;;;;;2.57;1.60;;;;;;;;;;4968737;28;20621;-73
2022/07/01 13:56:50;;;;;;;1.60;1.50;;;;;;;;;;4970103;28;20223;-74
2022/07/01 13:59:16;;;;;;;1.90;1.70;;;;;;;;;;4952932;28;20922;-74
2022/07/01 14:01:47;;;;;;;2.23;1.70;;;;;;;;;;4973577;28;20208;-75
2022/07/01 14:04:14;;;;;;;2.80;1.60;;;;;;;;;;4956584;28;20211;-75
2022/07/01 14:06:40;;;;;;;1.60;1.50;;;;;;;;;;4973464;28;20192;-75
2022/07/01 14:09:06;;;;;;;2.40;1.60;;;;;;;;;;4970072;28;20200;-74
2022/07/01 14:11:33;;;;;;;1.87;1.50;;;;;;;;;;4969631;28;20679;-74
2022/07/01 14:13:59;;;;;;;1.77;1.53;;;;;;;;;;4954253;28;20185;-74
2022/07/01 14:16:29;;;;;;;2.40;1.53;;;;;;;;;;4970435;28;20185;-75
2022/07/01 14:18:59;;;;;;;1.90;1.50;;;;;;;;;;4969634;28;20227;-75
2022/07/01 14:21:26;;;;;;;2.47;1.33;;;;;;;;;;4969765;28;20207;-75
2022/07/01 14:23:52;;;;;;;1.93;1.50;;;;;;;;;;4959616;28;20552;-75
2022/07/01 14:26:18;;;;;;;2.13;1.50;;;;;;;;;;4966273;28;20660;-75
2022/07/01 14:28:44;;;;;;;3.23;1.50;;;;;;;;;;4968227;28;20692;-75
2022/07/01 14:31:10;;;;;;;1.73;1.50;;;;;;;;;;4970520;28;20694;-74
2022/07/01 14:33:37;;;;;;;1.40;1.30;;;;;;;;;;4970086;28;20196;-75
2022/07/01 14:36:04;;;;;;;1.40;1.30;;;;;;;;;;4973223;28;20268;-74
2022/07/01 14:38:30;;;;;;;3.47;1.57;;;;;;;;;;4969397;28;20219;-74
2022/07/01 14:40:57;;;;;;;2.50;1.60;;;;;;;;;;4967497;28;20212;-74
2022/07/01 14:43:23;;;;;;;1.70;1.47;;;;;;;;;;4968581;28;20255;-75
2022/07/01 14:45:49;;;;;;;1.37;1.27;;;;;;;;;;4968044;28;20701;-75
2022/07/01 14:48:15;;;;;;;1.90;1.30;;;;;;;;;;4971573;28;20223;-75
2022/07/01 14:50:42;;;;;;;1.93;1.33;;;;;;;;;;4949700;28;20684;-75
2022/07/01 14:53:08;;;;;;;1.93;1.30;;;;;;;;;;4969527;28;20202;-74
2022/07/01 14:55:34;;;;;;;2.33;1.37;;;;;;;;;;4967409;28;20881;-74
2022/07/01 14:58:01;;;;;;;3.87;1.30;;;;;;;;;;4968433;28;20219;-74